MMD12C EDNY-EDLW
Flight info
| Callsign | MMD12C |
|---|---|
| Flight time | N/A |
| Altitude | 12000 |
| Route | ALAGO1W ALAGO Z1 SUDEN Y710 ETAGO DCT SOGMI Z850 ADEMI ADEMI2A |
| Aircraft | AT76/M-SDFGIRY/S |
Departure
| Time | 2026-05-01 11:58 |
|---|---|
| Airport | Bodensee Airport Friedrichshafen (EDNY) |
Arrival
| Time | N/A |
|---|---|
| Airport | Dortmund Airport (EDLW) |
| Time | Latitude | Longitude | Altitude | Speed | Heading |
|---|---|---|---|---|---|
| 2026-05-01 11:50 | 47.67336 | 9.52316 | 1365 ft | 0 kts | 193° |
| 2026-05-01 11:55 | 47.67332 | 9.52311 | 1364 ft | 5 kts | 218° |
| 2026-05-01 11:55 | 47.67324 | 9.52259 | 1365 ft | 4 kts | 291° |
| 2026-05-01 11:56 | 47.67376 | 9.52253 | 1364 ft | 11 kts | 39° |
| 2026-05-01 11:56 | 47.67417 | 9.52359 | 1365 ft | 12 kts | 61° |
| 2026-05-01 11:56 | 47.67464 | 9.52479 | 1365 ft | 14 kts | 59° |
| 2026-05-01 11:56 | 47.67528 | 9.52590 | 1365 ft | 14 kts | 13° |
| 2026-05-01 11:57 | 47.67602 | 9.52545 | 1370 ft | 10 kts | 329° |
| 2026-05-01 11:57 | 47.67638 | 9.52465 | 1371 ft | 9 kts | 254° |
| 2026-05-01 11:57 | 47.67625 | 9.52426 | 1369 ft | 17 kts | 242° |
| 2026-05-01 11:57 | 47.67462 | 9.52004 | 1360 ft | 77 kts | 240° |
| 2026-05-01 11:58 | 47.67109 | 9.51099 | 1361 ft | 123 kts | 239° |
| 2026-05-01 11:58 | 47.66650 | 9.49951 | 1730 ft | 130 kts | 236° |
| 2026-05-01 11:58 | 47.65716 | 9.47635 | 2884 ft | 133 kts | 240° |
| 2026-05-01 11:59 | 47.65237 | 9.46392 | 3168 ft | 148 kts | 241° |
| 2026-05-01 11:59 | 47.65048 | 9.44934 | 3295 ft | 163 kts | 286° |
| 2026-05-01 11:59 | 47.65777 | 9.43631 | 3375 ft | 176 kts | 338° |
| 2026-05-01 12:00 | 47.68125 | 9.44251 | 4215 ft | 178 kts | 20° |
| 2026-05-01 12:00 | 47.69306 | 9.44843 | 4681 ft | 181 kts | 20° |
| 2026-05-01 12:00 | 47.71720 | 9.45923 | 5376 ft | 184 kts | 14° |
| 2026-05-01 12:01 | 47.72984 | 9.46274 | 5794 ft | 186 kts | 11° |
| 2026-05-01 12:01 | 47.74280 | 9.46486 | 6234 ft | 188 kts | 5° |
| 2026-05-01 12:01 | 47.75594 | 9.46517 | 6581 ft | 190 kts | 1° |
| 2026-05-01 12:01 | 47.76922 | 9.46458 | 6890 ft | 191 kts | 0° |
| 2026-05-01 12:02 | 47.78260 | 9.46405 | 7202 ft | 193 kts | 2° |
| 2026-05-01 12:02 | 47.79605 | 9.46374 | 7582 ft | 194 kts | 1° |
| 2026-05-01 12:02 | 47.80953 | 9.46311 | 7860 ft | 194 kts | 0° |
| 2026-05-01 12:02 | 47.82314 | 9.46259 | 8120 ft | 197 kts | 1° |
| 2026-05-01 12:03 | 47.83688 | 9.46233 | 8448 ft | 198 kts | 2° |
| 2026-05-01 12:03 | 47.85049 | 9.46231 | 8773 ft | 198 kts | 3° |
| 2026-05-01 12:03 | 47.86432 | 9.46239 | 9058 ft | 199 kts | 3° |
| 2026-05-01 12:03 | 47.87823 | 9.46246 | 9369 ft | 201 kts | 3° |
| 2026-05-01 12:04 | 47.89227 | 9.46260 | 9663 ft | 202 kts | 4° |
| 2026-05-01 12:04 | 47.90637 | 9.46266 | 9958 ft | 203 kts | 3° |
| 2026-05-01 12:04 | 47.92055 | 9.46267 | 10303 ft | 204 kts | 2° |
| 2026-05-01 12:04 | 47.93477 | 9.46254 | 10571 ft | 205 kts | 2° |
| 2026-05-01 12:05 | 47.94906 | 9.46238 | 10854 ft | 206 kts | 2° |
| 2026-05-01 12:05 | 47.97776 | 9.46213 | 11394 ft | 207 kts | 4° |
| 2026-05-01 12:05 | 47.99216 | 9.46217 | 11685 ft | 207 kts | 3° |
| 2026-05-01 12:06 | 48.00657 | 9.46223 | 11965 ft | 207 kts | 4° |
| 2026-05-01 12:06 | 48.02105 | 9.46228 | 12171 ft | 211 kts | 3° |
| 2026-05-01 12:06 | 48.03605 | 9.46220 | 12252 ft | 221 kts | 3° |
| 2026-05-01 12:06 | 48.05178 | 9.46226 | 12293 ft | 231 kts | 4° |
| 2026-05-01 12:07 | 48.06822 | 9.46248 | 12300 ft | 241 kts | 4° |
| 2026-05-01 12:07 | 48.08522 | 9.46257 | 12294 ft | 247 kts | 3° |
| 2026-05-01 12:07 | 48.10260 | 9.46256 | 12310 ft | 252 kts | 3° |
| 2026-05-01 12:07 | 48.12031 | 9.46255 | 12311 ft | 257 kts | 2° |
| 2026-05-01 12:08 | 48.13833 | 9.46247 | 12303 ft | 260 kts | 2° |
| 2026-05-01 12:08 | 48.15654 | 9.46246 | 12314 ft | 262 kts | 3° |
| 2026-05-01 12:08 | 48.17488 | 9.46255 | 12315 ft | 265 kts | 2° |
| 2026-05-01 12:08 | 48.19315 | 9.46243 | 12329 ft | 267 kts | 3° |
| 2026-05-01 12:09 | 48.21184 | 9.46245 | 12298 ft | 269 kts | 3° |
| 2026-05-01 12:09 | 48.23058 | 9.46246 | 12295 ft | 269 kts | 3° |
| 2026-05-01 12:09 | 48.24952 | 9.46249 | 12309 ft | 269 kts | 3° |
| 2026-05-01 12:09 | 48.26823 | 9.46252 | 12303 ft | 269 kts | 3° |
| 2026-05-01 12:10 | 48.28670 | 9.46247 | 12310 ft | 269 kts | 3° |
| 2026-05-01 12:10 | 48.32419 | 9.46253 | 12308 ft | 269 kts | 3° |
| 2026-05-01 12:10 | 48.34292 | 9.46254 | 12320 ft | 270 kts | 3° |
| 2026-05-01 12:11 | 48.38071 | 9.46258 | 12299 ft | 273 kts | 3° |
| 2026-05-01 12:11 | 48.39967 | 9.46260 | 12299 ft | 272 kts | 3° |
| 2026-05-01 12:11 | 48.41862 | 9.46260 | 12306 ft | 272 kts | 3° |
| 2026-05-01 12:12 | 48.43755 | 9.46259 | 12311 ft | 272 kts | 3° |
| 2026-05-01 12:12 | 48.45651 | 9.46263 | 12313 ft | 272 kts | 3° |
| 2026-05-01 12:12 | 48.47552 | 9.46269 | 12308 ft | 273 kts | 3° |
| 2026-05-01 12:12 | 48.49451 | 9.46266 | 12317 ft | 273 kts | 3° |
| 2026-05-01 12:13 | 48.51356 | 9.46273 | 12318 ft | 274 kts | 3° |
| 2026-05-01 12:13 | 48.53263 | 9.46275 | 12316 ft | 274 kts | 3° |
| 2026-05-01 12:13 | 48.55169 | 9.46250 | 12307 ft | 274 kts | 2° |
| 2026-05-01 12:13 | 48.57072 | 9.46220 | 12308 ft | 273 kts | 2° |
| 2026-05-01 12:14 | 48.58973 | 9.46201 | 12311 ft | 273 kts | 2° |
| 2026-05-01 12:14 | 48.60866 | 9.46170 | 12310 ft | 272 kts | 2° |
| 2026-05-01 12:14 | 48.62732 | 9.46129 | 12308 ft | 271 kts | 2° |
| 2026-05-01 12:14 | 48.64617 | 9.46093 | 12316 ft | 271 kts | 2° |
| 2026-05-01 12:15 | 48.66502 | 9.46066 | 12314 ft | 271 kts | 2° |
| 2026-05-01 12:15 | 48.68387 | 9.46048 | 12318 ft | 271 kts | 2° |
| 2026-05-01 12:15 | 48.70276 | 9.46030 | 12325 ft | 272 kts | 2° |
| 2026-05-01 12:15 | 48.72168 | 9.46013 | 12326 ft | 273 kts | 2° |
| 2026-05-01 12:16 | 48.74066 | 9.45827 | 12310 ft | 274 kts | 353° |
| 2026-05-01 12:16 | 48.75931 | 9.45226 | 12314 ft | 274 kts | 349° |
| 2026-05-01 12:16 | 48.77789 | 9.44543 | 12311 ft | 275 kts | 349° |
| 2026-05-01 12:16 | 48.79652 | 9.43894 | 12310 ft | 274 kts | 350° |
| 2026-05-01 12:17 | 48.81523 | 9.43317 | 12320 ft | 274 kts | 352° |
| 2026-05-01 12:17 | 48.83400 | 9.42762 | 12313 ft | 275 kts | 351° |
| 2026-05-01 12:17 | 48.85280 | 9.42199 | 12311 ft | 275 kts | 352° |
| 2026-05-01 12:17 | 48.87157 | 9.41641 | 12312 ft | 275 kts | 351° |
| 2026-05-01 12:18 | 48.89031 | 9.41066 | 12307 ft | 274 kts | 351° |
| 2026-05-01 12:18 | 48.90899 | 9.40498 | 12313 ft | 274 kts | 351° |
| 2026-05-01 12:18 | 48.92766 | 9.39929 | 12307 ft | 273 kts | 351° |
| 2026-05-01 12:18 | 48.94627 | 9.39369 | 12309 ft | 273 kts | 351° |
| 2026-05-01 12:19 | 48.96488 | 9.38804 | 12306 ft | 272 kts | 351° |
| 2026-05-01 12:19 | 48.98317 | 9.38250 | 12316 ft | 272 kts | 351° |
| 2026-05-01 12:19 | 49.00173 | 9.37689 | 12325 ft | 272 kts | 351° |
| 2026-05-01 12:19 | 49.02033 | 9.37125 | 12335 ft | 273 kts | 351° |
| 2026-05-01 12:20 | 49.03901 | 9.36555 | 12319 ft | 274 kts | 351° |
| 2026-05-01 12:20 | 49.05772 | 9.35983 | 12321 ft | 274 kts | 351° |
| 2026-05-01 12:20 | 49.07650 | 9.35417 | 12317 ft | 275 kts | 351° |
| 2026-05-01 12:20 | 49.09527 | 9.34842 | 12321 ft | 275 kts | 351° |
| 2026-05-01 12:21 | 49.11399 | 9.34273 | 12308 ft | 274 kts | 351° |
| 2026-05-01 12:21 | 49.13269 | 9.33700 | 12314 ft | 273 kts | 351° |
| 2026-05-01 12:21 | 49.15133 | 9.33134 | 12328 ft | 274 kts | 351° |
| 2026-05-01 12:21 | 49.17002 | 9.32564 | 12322 ft | 274 kts | 351° |
| 2026-05-01 12:22 | 49.18870 | 9.31996 | 12330 ft | 274 kts | 351° |
| 2026-05-01 12:22 | 49.20748 | 9.31424 | 12315 ft | 275 kts | 351° |
| 2026-05-01 12:22 | 49.22624 | 9.30844 | 12331 ft | 275 kts | 351° |
| 2026-05-01 12:22 | 49.24504 | 9.30267 | 12322 ft | 275 kts | 351° |
| 2026-05-01 12:23 | 49.26383 | 9.29692 | 12320 ft | 275 kts | 351° |
| 2026-05-01 12:23 | 49.28260 | 9.29118 | 12316 ft | 275 kts | 351° |
| 2026-05-01 12:23 | 49.30135 | 9.28543 | 12329 ft | 275 kts | 351° |
| 2026-05-01 12:23 | 49.32016 | 9.27964 | 12313 ft | 275 kts | 351° |
| 2026-05-01 12:24 | 49.33892 | 9.27385 | 12326 ft | 275 kts | 351° |
| 2026-05-01 12:24 | 49.35766 | 9.26809 | 12326 ft | 276 kts | 351° |
| 2026-05-01 12:24 | 49.37648 | 9.26226 | 12323 ft | 276 kts | 351° |
| 2026-05-01 12:24 | 49.39527 | 9.25650 | 12323 ft | 275 kts | 351° |
| 2026-05-01 12:25 | 49.41407 | 9.25071 | 12321 ft | 275 kts | 351° |
| 2026-05-01 12:25 | 49.45158 | 9.23912 | 12333 ft | 275 kts | 351° |
| 2026-05-01 12:25 | 49.47038 | 9.23332 | 12342 ft | 276 kts | 352° |
| 2026-05-01 12:26 | 49.48929 | 9.22751 | 12323 ft | 277 kts | 351° |
| 2026-05-01 12:26 | 49.52710 | 9.21571 | 12334 ft | 277 kts | 351° |
| 2026-05-01 12:26 | 49.54606 | 9.20984 | 12336 ft | 278 kts | 352° |
| 2026-05-01 12:27 | 49.56508 | 9.20399 | 12331 ft | 279 kts | 351° |
| 2026-05-01 12:27 | 49.60308 | 9.19213 | 12321 ft | 278 kts | 351° |
| 2026-05-01 12:28 | 49.64093 | 9.18032 | 12333 ft | 277 kts | 351° |
| 2026-05-01 12:28 | 49.65980 | 9.17444 | 12330 ft | 277 kts | 351° |
| 2026-05-01 12:28 | 49.69726 | 9.16276 | 12330 ft | 276 kts | 351° |
| 2026-05-01 12:29 | 49.71592 | 9.15693 | 12337 ft | 276 kts | 351° |
| 2026-05-01 12:29 | 49.73468 | 9.15108 | 12334 ft | 275 kts | 351° |
| 2026-05-01 12:29 | 49.77220 | 9.13931 | 12339 ft | 275 kts | 351° |
| 2026-05-01 12:30 | 49.80966 | 9.12759 | 12343 ft | 275 kts | 351° |
| 2026-05-01 12:30 | 49.82844 | 9.12171 | 12337 ft | 275 kts | 351° |
| 2026-05-01 12:30 | 49.84719 | 9.11579 | 12339 ft | 275 kts | 351° |
| 2026-05-01 12:31 | 49.86601 | 9.10986 | 12354 ft | 277 kts | 351° |
| 2026-05-01 12:31 | 49.88489 | 9.10394 | 12325 ft | 277 kts | 351° |
| 2026-05-01 12:31 | 49.90374 | 9.09799 | 12327 ft | 276 kts | 351° |
| 2026-05-01 12:31 | 49.92256 | 9.09203 | 12347 ft | 276 kts | 351° |
| 2026-05-01 12:32 | 49.94138 | 9.08614 | 12350 ft | 277 kts | 351° |
| 2026-05-01 12:32 | 49.97918 | 9.07418 | 12342 ft | 277 kts | 351° |
| 2026-05-01 12:32 | 49.99808 | 9.06819 | 12342 ft | 277 kts | 351° |
| 2026-05-01 12:33 | 50.01701 | 9.06225 | 12344 ft | 278 kts | 351° |
| 2026-05-01 12:33 | 50.03598 | 9.05625 | 12334 ft | 278 kts | 351° |
| 2026-05-01 12:33 | 50.05492 | 9.05020 | 12341 ft | 277 kts | 351° |
| 2026-05-01 12:33 | 50.07380 | 9.04422 | 12338 ft | 277 kts | 351° |
| 2026-05-01 12:34 | 50.08632 | 9.04022 | 12341 ft | 277 kts | 351° |
| 2026-05-01 12:34 | 50.10424 | 9.03453 | 12336 ft | 276 kts | 351° |
| 2026-05-01 12:34 | 50.12236 | 9.02877 | 12336 ft | 276 kts | 351° |
| 2026-05-01 12:34 | 50.14114 | 9.02278 | 12357 ft | 275 kts | 351° |
| 2026-05-01 12:35 | 50.16001 | 9.01678 | 12356 ft | 277 kts | 351° |
| 2026-05-01 12:35 | 50.17894 | 9.01076 | 12340 ft | 278 kts | 351° |
| 2026-05-01 12:35 | 50.19787 | 9.00474 | 12341 ft | 278 kts | 351° |
| 2026-05-01 12:35 | 50.21682 | 8.99869 | 12334 ft | 278 kts | 351° |
| 2026-05-01 12:36 | 50.23573 | 8.99264 | 12336 ft | 277 kts | 351° |
| 2026-05-01 12:36 | 50.25463 | 8.98666 | 12339 ft | 277 kts | 351° |
| 2026-05-01 12:36 | 50.27352 | 8.98071 | 12343 ft | 277 kts | 351° |
| 2026-05-01 12:36 | 50.29242 | 8.97481 | 12341 ft | 277 kts | 351° |
| 2026-05-01 12:37 | 50.31130 | 8.96889 | 12356 ft | 277 kts | 351° |
| 2026-05-01 12:37 | 50.33025 | 8.96288 | 12340 ft | 278 kts | 351° |
| 2026-05-01 12:37 | 50.34894 | 8.95688 | 12337 ft | 277 kts | 350° |
| 2026-05-01 12:37 | 50.36654 | 8.94522 | 12351 ft | 280 kts | 323° |
| 2026-05-01 12:38 | 50.37983 | 8.92315 | 12344 ft | 278 kts | 311° |
| 2026-05-01 12:38 | 50.39277 | 8.90060 | 12334 ft | 278 kts | 315° |
| 2026-05-01 12:38 | 50.40698 | 8.88014 | 12348 ft | 278 kts | 321° |
| 2026-05-01 12:38 | 50.42247 | 8.86191 | 12343 ft | 279 kts | 328° |
| 2026-05-01 12:39 | 50.43946 | 8.84635 | 12339 ft | 279 kts | 334° |
| 2026-05-01 12:39 | 50.45683 | 8.83365 | 12338 ft | 279 kts | 339° |
| 2026-05-01 12:39 | 50.47492 | 8.82298 | 12342 ft | 280 kts | 343° |
| 2026-05-01 12:39 | 50.49355 | 8.81418 | 12347 ft | 279 kts | 346° |
| 2026-05-01 12:40 | 50.51136 | 8.80206 | 12342 ft | 280 kts | 331° |
| 2026-05-01 12:40 | 50.52790 | 8.78573 | 12340 ft | 281 kts | 327° |
| 2026-05-01 12:40 | 50.54417 | 8.76873 | 12342 ft | 281 kts | 327° |
| 2026-05-01 12:40 | 50.56033 | 8.75149 | 12336 ft | 280 kts | 320° |
| 2026-05-01 12:41 | 50.57276 | 8.72843 | 12329 ft | 273 kts | 311° |
| 2026-05-01 12:41 | 50.58828 | 8.71178 | 12338 ft | 271 kts | 338° |
| 2026-05-01 12:41 | 50.60381 | 8.69555 | 12339 ft | 270 kts | 315° |
| 2026-05-01 12:41 | 50.61665 | 8.67388 | 12340 ft | 271 kts | 312° |
| 2026-05-01 12:42 | 50.63062 | 8.65428 | 12349 ft | 269 kts | 324° |
| 2026-05-01 12:42 | 50.64442 | 8.63429 | 12340 ft | 271 kts | 314° |
| 2026-05-01 12:42 | 50.65757 | 8.61302 | 12338 ft | 270 kts | 320° |
| 2026-05-01 12:42 | 50.67214 | 8.59433 | 12349 ft | 270 kts | 317° |
| 2026-05-01 12:43 | 50.68553 | 8.57326 | 12347 ft | 273 kts | 314° |
| 2026-05-01 12:43 | 50.69936 | 8.55272 | 12343 ft | 273 kts | 323° |
| 2026-05-01 12:43 | 50.71342 | 8.53325 | 12339 ft | 273 kts | 316° |
| 2026-05-01 12:43 | 50.72685 | 8.51188 | 12340 ft | 274 kts | 315° |
| 2026-05-01 12:44 | 50.74136 | 8.49247 | 12345 ft | 274 kts | 319° |
| 2026-05-01 12:44 | 50.75511 | 8.47155 | 12343 ft | 275 kts | 315° |
| 2026-05-01 12:44 | 50.78331 | 8.43064 | 12339 ft | 276 kts | 316° |
| 2026-05-01 12:45 | 50.81151 | 8.38925 | 12352 ft | 278 kts | 319° |
| 2026-05-01 12:45 | 50.82554 | 8.36811 | 12335 ft | 279 kts | 315° |
| 2026-05-01 12:45 | 50.83946 | 8.34671 | 12331 ft | 278 kts | 320° |
| 2026-05-01 12:46 | 50.85411 | 8.32669 | 12342 ft | 278 kts | 317° |
| 2026-05-01 12:46 | 50.86797 | 8.30525 | 12339 ft | 279 kts | 315° |
| 2026-05-01 12:46 | 50.88230 | 8.28466 | 12355 ft | 278 kts | 320° |
| 2026-05-01 12:46 | 50.89653 | 8.26383 | 12341 ft | 279 kts | 315° |
| 2026-05-01 12:47 | 50.91037 | 8.24229 | 12345 ft | 278 kts | 317° |
| 2026-05-01 12:47 | 50.92497 | 8.22212 | 12320 ft | 279 kts | 317° |
| 2026-05-01 12:47 | 50.93903 | 8.20069 | 12123 ft | 281 kts | 315° |
| 2026-05-01 12:47 | 50.95301 | 8.17914 | 11913 ft | 280 kts | 317° |
| 2026-05-01 12:48 | 50.96754 | 8.15839 | 11606 ft | 283 kts | 316° |
| 2026-05-01 12:48 | 50.98184 | 8.13676 | 11306 ft | 285 kts | 316° |
| 2026-05-01 12:48 | 50.99624 | 8.11500 | 11010 ft | 287 kts | 316° |
| 2026-05-01 12:48 | 51.01089 | 8.09343 | 10757 ft | 287 kts | 319° |
| 2026-05-01 12:49 | 51.02560 | 8.07251 | 10456 ft | 289 kts | 316° |
| 2026-05-01 12:49 | 51.04014 | 8.05038 | 10160 ft | 290 kts | 315° |
| 2026-05-01 12:49 | 51.05466 | 8.02813 | 9848 ft | 290 kts | 315° |
| 2026-05-01 12:49 | 51.06980 | 8.00706 | 9557 ft | 289 kts | 317° |
| 2026-05-01 12:50 | 51.08440 | 7.98502 | 9223 ft | 289 kts | 314° |
| 2026-05-01 12:50 | 51.09873 | 7.96271 | 8907 ft | 286 kts | 315° |
| 2026-05-01 12:50 | 51.11374 | 7.94204 | 8564 ft | 285 kts | 317° |
| 2026-05-01 12:50 | 51.12803 | 7.92024 | 8206 ft | 284 kts | 314° |
| 2026-05-01 12:51 | 51.14213 | 7.89815 | 7877 ft | 284 kts | 316° |
| 2026-05-01 12:51 | 51.15659 | 7.87716 | 7693 ft | 278 kts | 315° |
| 2026-05-01 12:51 | 51.18398 | 7.83521 | 7329 ft | 269 kts | 315° |
| 2026-05-01 12:52 | 51.19769 | 7.81489 | 7077 ft | 268 kts | 318° |
| 2026-05-01 12:52 | 51.22396 | 7.77585 | 6556 ft | 241 kts | 313° |
| 2026-05-01 12:52 | 51.23561 | 7.75788 | 6278 ft | 226 kts | 314° |
| 2026-05-01 12:53 | 51.25879 | 7.72362 | 5723 ft | 230 kts | 314° |
| 2026-05-01 12:53 | 51.27018 | 7.70607 | 5460 ft | 231 kts | 313° |
| 2026-05-01 12:53 | 51.28190 | 7.68791 | 5222 ft | 233 kts | 313° |
| 2026-05-01 12:54 | 51.29364 | 7.67067 | 4986 ft | 232 kts | 316° |
| 2026-05-01 12:54 | 51.31700 | 7.63508 | 4553 ft | 227 kts | 313° |
| 2026-05-01 12:54 | 51.32825 | 7.61899 | 4347 ft | 207 kts | 319° |
| 2026-05-01 12:55 | 51.34774 | 7.58933 | 3861 ft | 184 kts | 312° |
| 2026-05-01 12:55 | 51.35718 | 7.57582 | 3729 ft | 180 kts | 321° |
| 2026-05-01 12:55 | 51.36673 | 7.56312 | 3554 ft | 178 kts | 320° |
| 2026-05-01 12:56 | 51.37633 | 7.55093 | 3435 ft | 173 kts | 320° |
| 2026-05-01 12:56 | 51.38558 | 7.53938 | 3236 ft | 164 kts | 321° |
| 2026-05-01 12:56 | 51.39401 | 7.52884 | 3214 ft | 145 kts | 321° |
| 2026-05-01 12:56 | 51.40202 | 7.51861 | 3046 ft | 148 kts | 321° |
| 2026-05-01 12:57 | 51.40993 | 7.50807 | 2936 ft | 147 kts | 315° |
| 2026-05-01 12:57 | 51.42139 | 7.48123 | 2882 ft | 147 kts | 291° |
| 2026-05-01 12:57 | 51.42575 | 7.46659 | 2820 ft | 145 kts | 291° |
| 2026-05-01 12:58 | 51.43061 | 7.45247 | 2878 ft | 146 kts | 302° |
| 2026-05-01 12:58 | 51.43930 | 7.44395 | 2916 ft | 150 kts | 335° |
| 2026-05-01 12:58 | 51.44913 | 7.43871 | 2871 ft | 150 kts | 4° |
| 2026-05-01 12:59 | 51.46334 | 7.45661 | 2552 ft | 127 kts | 66° |
| 2026-05-01 12:59 | 51.46796 | 7.46910 | 2396 ft | 133 kts | 64° |
| 2026-05-01 12:59 | 51.47701 | 7.49488 | 2039 ft | 138 kts | 68° |
| 2026-05-01 13:00 | 51.48619 | 7.52135 | 1670 ft | 132 kts | 64° |
| 2026-05-01 13:00 | 51.49105 | 7.53432 | 1475 ft | 138 kts | 65° |